createdAt,value
2019-01-21T00:00:59.996Z,98668.38
2019-01-21T00:03:14.621Z,98663.27
2019-01-21T00:05:23.638Z,98665.88
2019-01-21T00:07:34.443Z,98665.91
2019-01-21T00:09:45.265Z,98663.38
2019-01-21T00:11:56.058Z,98666.82
2019-01-21T00:14:06.882Z,98666.47
2019-01-21T00:16:17.680Z,98661.34
2019-01-21T00:18:28.501Z,98663.09
2019-01-21T00:20:39.322Z,98669.40
2019-01-21T00:22:50.136Z,98669.00
2019-01-21T00:25:00.949Z,98674.09
2019-01-21T00:27:11.746Z,98679.22
2019-01-21T00:29:22.569Z,98682.26
2019-01-21T00:31:33.363Z,98682.28
2019-01-21T00:33:44.185Z,98686.09
2019-01-21T00:35:55.116Z,98677.56
2019-01-21T00:38:05.905Z,98679.66
2019-01-21T00:40:16.822Z,98680.11
2019-01-21T00:42:27.619Z,98683.49
2019-01-21T00:44:38.434Z,98684.88
2019-01-21T00:46:49.243Z,98683.23
2019-01-21T00:49:00.062Z,98684.53
2019-01-21T00:51:10.865Z,98690.89
2019-01-21T00:53:21.659Z,98696.02
2019-01-21T00:55:32.488Z,98696.84
2019-01-21T00:57:43.404Z,98697.25
2019-01-21T00:59:54.232Z,98697.61
2019-01-21T01:02:05.026Z,98699.28
2019-01-21T01:04:16.106Z,98695.45
2019-01-21T01:06:26.868Z,98699.27
2019-01-21T01:08:37.657Z,98697.52
2019-01-21T01:10:48.487Z,98696.66
2019-01-21T01:12:59.306Z,98705.16
2019-01-21T01:15:51.762Z,98703.45
2019-01-21T01:18:02.853Z,98699.62
2019-01-21T01:20:55.313Z,98706.00
2019-01-21T01:23:06.104Z,98708.53
2019-01-21T01:25:16.930Z,98712.77
2019-01-21T01:27:27.744Z,98711.92
2019-01-21T01:29:38.540Z,98713.20
2019-01-21T01:31:49.355Z,98711.95
2019-01-21T01:34:00.164Z,98706.86
2019-01-21T01:36:10.997Z,98707.80
2019-01-21T01:38:21.791Z,98715.04
2019-01-21T01:40:32.599Z,98710.80
2019-01-21T01:42:43.604Z,98716.38
2019-01-21T01:44:54.405Z,98710.03
2019-01-21T01:47:05.320Z,98712.62
2019-01-21T01:49:16.117Z,98712.18
2019-01-21T01:51:27.029Z,98710.02
2019-01-21T01:53:37.821Z,98712.59
2019-01-21T01:55:48.640Z,98712.59
2019-01-21T01:57:59.689Z,98716.01
2019-01-21T02:00:52.123Z,98718.16
2019-01-21T02:03:44.604Z,98713.07
2019-01-21T02:05:55.503Z,98712.23
2019-01-21T02:08:06.406Z,98707.19
2019-01-21T02:10:17.299Z,98710.53
2019-01-21T02:12:28.301Z,98713.95
2019-01-21T02:14:39.123Z,98716.48
2019-01-21T02:16:49.939Z,98718.60
2019-01-21T02:19:00.758Z,98716.03
2019-01-21T02:21:11.660Z,98714.84
2019-01-21T02:24:04.151Z,98725.06
2019-01-21T02:26:56.596Z,98718.70
2019-01-21T02:29:49.053Z,98717.01
2019-01-21T02:32:39.575Z,98715.30
2019-01-21T02:35:30.140Z,98717.01
2019-01-21T02:38:20.667Z,98716.58
2019-01-21T02:41:13.128Z,98717.88
2019-01-21T02:44:05.624Z,98714.47
2019-01-21T02:46:58.066Z,98718.75
2019-01-21T02:49:50.517Z,98715.84
2019-01-21T02:52:41.067Z,98713.75
2019-01-21T02:55:33.510Z,98710.77
2019-01-21T02:58:24.360Z,98713.79
2019-01-21T03:00:47.780Z,98715.51
2019-01-21T03:03:40.246Z,98714.22
2019-01-21T03:06:32.766Z,98717.23
2019-01-21T03:09:25.206Z,98711.28
2019-01-21T03:12:15.748Z,98710.88
2019-01-21T03:15:08.205Z,98718.55
2019-01-21T03:18:07.783Z,98715.16
2019-01-21T03:20:35.120Z,98712.61
2019-01-21T03:23:25.677Z,98707.56
2019-01-21T03:26:16.228Z,98702.48
2019-01-21T03:29:06.805Z,98704.18
2019-01-21T03:31:57.366Z,98708.45
2019-01-21T03:34:47.934Z,98706.73
2019-01-21T03:37:38.476Z,98708.00
2019-01-21T03:40:29.008Z,98705.02
2019-01-21T03:43:21.471Z,98702.94
2019-01-21T03:46:12.033Z,98709.73
2019-01-21T03:49:04.500Z,98710.16
2019-01-21T03:51:55.062Z,98713.63
2019-01-21T03:54:47.512Z,98711.52
2019-01-21T03:57:39.994Z,98716.63
2019-01-21T04:00:32.434Z,98712.39
2019-01-21T04:03:24.936Z,98720.45
2019-01-21T04:06:15.453Z,98722.16
2019-01-21T04:09:06.024Z,98723.44
2019-01-21T04:11:56.553Z,98720.87
2019-01-21T04:14:49.011Z,98723.45
2019-01-21T04:17:39.563Z,98720.49
2019-01-21T04:20:31.750Z,98720.92
2019-01-21T04:23:22.356Z,98716.67
2019-01-21T04:26:12.904Z,98716.25
2019-01-21T04:29:05.683Z,98719.23
2019-01-21T04:31:56.226Z,98714.59
2019-01-21T04:34:47.094Z,98722.20
2019-01-21T04:37:39.554Z,98710.76
2019-01-21T04:40:30.109Z,98726.45
2019-01-21T04:43:20.671Z,98728.98
2019-01-21T04:46:13.164Z,98721.76
2019-01-21T04:49:03.744Z,98727.26
2019-01-21T04:51:56.182Z,98731.48
2019-01-21T04:54:48.724Z,98726.38
2019-01-21T04:57:39.277Z,98725.11
2019-01-21T05:00:29.841Z,98725.11
2019-01-21T05:03:20.401Z,98725.96
2019-01-21T05:06:10.954Z,98729.76
2019-01-21T05:09:01.512Z,98736.13
2019-01-21T05:11:52.063Z,98735.66
2019-01-21T05:14:43.952Z,98735.65
2019-01-21T05:17:36.494Z,98733.52
2019-01-21T05:20:28.961Z,98737.23
2019-01-21T05:23:19.512Z,98741.83
2019-01-21T05:26:11.978Z,98741.83
2019-01-21T05:29:02.530Z,98740.91
2019-01-21T05:31:54.995Z,98742.99
2019-01-21T05:34:45.541Z,98757.36
2019-01-21T05:37:36.084Z,98753.95
2019-01-21T05:40:26.628Z,98753.95
2019-01-21T05:43:19.120Z,98758.11
2019-01-21T05:46:09.633Z,98759.37
2019-01-21T05:49:00.224Z,98761.05
2019-01-21T05:51:50.793Z,98766.97
2019-01-21T05:54:41.329Z,98773.66
2019-01-21T05:57:31.918Z,98773.60
2019-01-21T06:00:24.371Z,98771.52
2019-01-21T06:03:16.866Z,98774.87
2019-01-21T06:06:07.407Z,98778.20
2019-01-21T06:08:59.920Z,98777.33
2019-01-21T06:11:52.324Z,98778.08
2019-01-21T06:14:42.908Z,98779.70
2019-01-21T06:17:35.344Z,98779.28
2019-01-21T06:20:25.907Z,98783.51
2019-01-21T06:23:18.354Z,98784.25
2019-01-21T06:26:08.917Z,98784.25
2019-01-21T06:29:01.395Z,98788.52
2019-01-21T06:31:51.937Z,98791.08
2019-01-21T06:34:42.520Z,98792.95
2019-01-21T06:37:33.054Z,98801.76
2019-01-21T06:40:25.535Z,98803.44
2019-01-21T06:43:16.076Z,98804.56
2019-01-21T06:46:08.539Z,98800.56
2019-01-21T06:49:04.571Z,98802.95
2019-01-21T06:51:51.543Z,98809.22
2019-01-21T06:54:44.000Z,98806.54
2019-01-21T06:57:36.450Z,98815.36
2019-01-21T07:00:26.996Z,98817.80
2019-01-21T07:03:19.531Z,98814.77
2019-01-21T07:06:12.000Z,98817.27
2019-01-21T07:09:04.450Z,98818.02
2019-01-21T07:11:56.929Z,98826.45
2019-01-21T07:14:47.479Z,98828.54
2019-01-21T07:17:39.991Z,98827.27
2019-01-21T07:20:32.476Z,98835.33
2019-01-21T07:23:24.957Z,98834.03
2019-01-21T07:26:15.533Z,98832.76
2019-01-21T07:29:06.102Z,98836.09
2019-01-21T07:31:58.562Z,98845.39
2019-01-21T07:34:49.110Z,98844.93
2019-01-21T07:37:39.669Z,98852.88
2019-01-21T07:40:30.224Z,98843.55
2019-01-21T07:43:20.784Z,98849.38
2019-01-21T07:46:11.332Z,98849.38
2019-01-21T07:49:03.803Z,98848.53
2019-01-21T07:57:39.116Z,98854.06
2019-01-21T08:00:31.582Z,98858.33
2019-01-21T08:02:55.955Z,98861.36
2019-01-21T08:05:46.543Z,98861.36
2019-01-21T08:08:39.002Z,98858.86
2019-01-21T08:11:31.477Z,98862.33
2019-01-21T08:14:23.947Z,98872.16
2019-01-21T08:17:16.424Z,98867.16
2019-01-21T08:20:08.909Z,98863.47
2019-01-21T08:22:59.451Z,98869.55
2019-01-21T08:25:50.045Z,98860.41
2019-01-21T08:28:42.495Z,98866.17
2019-01-21T08:31:34.953Z,98860.56
2019-01-21T08:34:27.422Z,98863.30
2019-01-21T08:37:19.908Z,98860.82
2019-01-21T08:40:12.386Z,98855.34
2019-01-21T08:43:02.929Z,98855.34
2019-01-21T08:45:55.422Z,98855.33
2019-01-21T08:48:45.966Z,98857.37
2019-01-21T08:51:38.451Z,98860.65
2019-01-21T08:54:30.902Z,98854.56
2019-01-21T08:57:23.360Z,98853.14
2019-01-21T09:00:15.790Z,98855.52
2019-01-21T09:03:08.297Z,98850.17
2019-01-21T09:06:00.746Z,98852.75
2019-01-21T09:08:53.219Z,98854.82
2019-01-21T09:11:43.782Z,98848.72
2019-01-21T09:14:36.243Z,98853.56
2019-01-21T09:17:28.709Z,98854.20
2019-01-21T09:20:21.193Z,98857.37
2019-01-21T09:23:13.636Z,98857.37
2019-01-21T09:26:06.083Z,98851.99
2019-01-21T09:28:56.639Z,98858.51
2019-01-21T09:31:49.082Z,98864.91
2019-01-21T09:34:39.633Z,98863.92
2019-01-21T09:37:30.162Z,98869.33
2019-01-21T09:40:22.650Z,98867.72
2019-01-21T09:43:13.242Z,98872.99
2019-01-21T09:46:05.675Z,98870.88
2019-01-21T09:48:16.285Z,98872.45
2019-01-21T09:53:19.935Z,98876.23
2019-01-21T09:55:30.874Z,98868.97
2019-01-21T09:57:41.776Z,98870.95
2019-01-21T09:59:52.808Z,98874.86
2019-01-21T10:02:45.297Z,98868.02
2019-01-21T10:05:37.747Z,98866.07
2019-01-21T10:08:30.190Z,98863.30
2019-01-21T10:11:22.645Z,98862.60
2019-01-21T10:14:13.188Z,98862.46
2019-01-21T10:17:05.685Z,98855.40
2019-01-21T10:19:58.136Z,98859.91
2019-01-21T10:22:30.726Z,98859.09
2019-01-21T10:25:23.191Z,98859.80
2019-01-21T10:28:15.635Z,98859.23
2019-01-21T10:31:08.121Z,98857.92
2019-01-21T10:33:58.665Z,98861.69
2019-01-21T10:36:51.129Z,98858.72
2019-01-21T10:39:43.579Z,98856.13
2019-01-21T10:42:34.139Z,98854.77
2019-01-21T10:45:26.573Z,98853.68
2019-01-21T10:48:19.037Z,98852.88
2019-01-21T10:51:09.580Z,98848.42
2019-01-21T10:54:00.139Z,98848.42
2019-01-21T10:56:52.583Z,98847.83
2019-01-21T10:59:43.158Z,98849.52
2019-01-21T11:02:15.781Z,98842.16
2019-01-21T11:05:08.227Z,98841.94
2019-01-21T11:08:03.475Z,98838.03
2019-01-21T11:10:54.033Z,98828.74
2019-01-21T11:13:46.497Z,98833.02
2019-01-21T11:16:38.967Z,98827.70
2019-01-21T11:19:31.424Z,98831.59
2019-01-21T11:22:23.862Z,98828.30
2019-01-21T11:25:16.323Z,98824.47
2019-01-21T11:28:08.818Z,98833.34
2019-01-21T11:30:59.361Z,98820.03
2019-01-21T11:33:51.856Z,98823.03
2019-01-21T11:36:44.332Z,98818.87
2019-01-21T11:39:36.782Z,98814.81
2019-01-21T11:42:29.226Z,98823.62
2019-01-21T11:45:19.791Z,98819.53
2019-01-21T11:48:12.223Z,98824.09
2019-01-21T11:51:04.703Z,98816.38
2019-01-21T11:53:55.248Z,98823.14
2019-01-21T11:56:47.723Z,98823.81
2019-01-21T11:59:40.181Z,98820.95
2019-01-21T12:02:32.641Z,98820.73
2019-01-21T12:05:23.215Z,98818.14
2019-01-21T12:08:13.753Z,98814.77
2019-01-21T12:11:06.209Z,98813.57
2019-01-21T12:13:58.654Z,98810.86
2019-01-21T12:16:51.144Z,98809.28
2019-01-21T12:19:41.689Z,98808.34
2019-01-21T12:22:32.244Z,98806.69
2019-01-21T12:25:24.683Z,98801.91
2019-01-21T12:28:15.255Z,98795.44
2019-01-21T12:31:05.787Z,98788.60
2019-01-21T12:33:56.358Z,98796.64
2019-01-21T12:36:48.827Z,98799.42
2019-01-21T12:39:42.318Z,98787.11
2019-01-21T12:42:34.776Z,98789.77
2019-01-21T12:45:27.221Z,98786.22
2019-01-21T12:48:19.689Z,98786.78
2019-01-21T12:51:10.230Z,98785.70
2019-01-21T12:54:02.707Z,98786.26
2019-01-21T12:56:55.454Z,98782.46
2019-01-21T12:59:47.933Z,98778.77
2019-01-21T13:02:38.494Z,98782.72
2019-01-21T13:05:30.962Z,98777.81
2019-01-21T13:08:23.415Z,98771.89
2019-01-21T13:11:13.977Z,98762.94
2019-01-21T13:14:04.615Z,98762.94
2019-01-21T13:16:57.095Z,98765.19
2019-01-21T13:19:49.571Z,98762.67
2019-01-21T13:22:40.118Z,98768.95
2019-01-21T13:25:30.670Z,98765.97
2019-01-21T13:28:23.109Z,98766.77
2019-01-21T13:31:15.567Z,98759.03
2019-01-21T13:34:06.112Z,98757.75
2019-01-21T13:36:58.582Z,98759.39
2019-01-21T13:39:51.050Z,98751.97
2019-01-21T13:42:43.538Z,98751.09
2019-01-21T13:45:34.093Z,98757.52
2019-01-21T13:48:26.526Z,98756.58
2019-01-21T13:51:18.989Z,98749.84
2019-01-21T13:54:09.514Z,98754.93
2019-01-21T13:57:00.105Z,98749.74
2019-01-21T13:59:50.658Z,98749.41
2019-01-21T14:02:43.150Z,98754.42
2019-01-21T14:05:35.631Z,98748.64
2019-01-21T14:08:28.089Z,98751.16
2019-01-21T14:11:20.560Z,98749.48
2019-01-21T14:14:13.015Z,98751.97
2019-01-21T14:17:05.470Z,98749.31
2019-01-21T14:19:57.942Z,98745.88
2019-01-21T14:22:48.517Z,98741.74
2019-01-21T14:25:39.070Z,98740.97
2019-01-21T14:28:31.553Z,98746.08
2019-01-21T14:31:22.094Z,98737.30
2019-01-21T14:34:14.560Z,98737.36
2019-01-21T14:37:05.105Z,98731.81
2019-01-21T14:39:55.704Z,98727.58
2019-01-21T14:42:48.143Z,98727.20
2019-01-21T14:45:38.707Z,98729.33
2019-01-21T14:48:29.301Z,98730.63
2019-01-21T14:51:19.831Z,98729.36
2019-01-21T14:54:10.422Z,98725.58
2019-01-21T14:57:02.895Z,98718.29
2019-01-21T14:59:55.362Z,98714.92
2019-01-21T15:02:47.870Z,98709.84
2019-01-21T15:05:40.383Z,98709.44
2019-01-21T15:08:32.819Z,98706.08
2019-01-21T15:11:23.355Z,98717.20
2019-01-21T15:14:13.914Z,98714.67
2019-01-21T15:17:06.394Z,98712.96
2019-01-21T15:19:58.896Z,98715.48
2019-01-21T15:22:51.335Z,98716.80
2019-01-21T15:25:41.873Z,98716.83
2019-01-21T15:28:14.491Z,98718.56
2019-01-21T15:31:06.963Z,98719.87
2019-01-21T15:33:57.618Z,98714.80
2019-01-21T15:36:50.110Z,98713.14
2019-01-21T15:39:42.762Z,98708.88
2019-01-21T15:42:35.257Z,98714.47
2019-01-21T15:45:25.824Z,98714.13
2019-01-21T15:48:18.286Z,98718.85
2019-01-21T15:51:08.978Z,98721.07
2019-01-21T15:54:01.428Z,98726.66
2019-01-21T15:56:53.918Z,98733.91
2019-01-21T15:59:46.369Z,98729.59
2019-01-21T16:02:37.181Z,98723.27
2019-01-21T16:05:29.652Z,98729.67
2019-01-21T16:08:22.145Z,98725.09
2019-01-21T16:11:14.611Z,98727.69
2019-01-21T16:13:46.503Z,98730.27
2019-01-21T16:16:38.971Z,98734.12
2019-01-21T16:19:31.435Z,98734.98
2019-01-21T16:22:22.041Z,98731.99
2019-01-21T16:25:14.507Z,98732.04
2019-01-21T16:28:05.090Z,98730.16
2019-01-21T16:30:57.602Z,98721.77
2019-01-21T16:33:50.066Z,98723.72
2019-01-21T16:36:42.531Z,98723.30
2019-01-21T16:39:35.014Z,98735.13
2019-01-21T16:42:25.563Z,98731.41
2019-01-21T16:44:36.410Z,98733.08
2019-01-21T16:46:47.223Z,98742.29
2019-01-21T16:48:58.054Z,98741.57
2019-01-21T16:51:08.838Z,98733.14
2019-01-21T16:53:19.674Z,98738.74
2019-01-21T16:55:30.487Z,98738.80
2019-01-21T16:57:41.387Z,98742.67
2019-01-21T16:59:52.227Z,98734.63
2019-01-21T17:04:55.420Z,98733.39
2019-01-21T17:07:06.303Z,98737.41
2019-01-21T17:09:17.161Z,98720.50
2019-01-21T17:11:27.995Z,98712.89
2019-01-21T17:13:38.829Z,98719.77
2019-01-21T17:15:49.668Z,98718.54
2019-01-21T17:18:00.498Z,98716.88
2019-01-21T17:20:53.006Z,98721.16
2019-01-21T17:23:03.814Z,98725.43
2019-01-21T17:25:14.774Z,98722.93
2019-01-21T17:27:25.640Z,98718.28
2019-01-21T17:29:36.553Z,98723.36
2019-01-21T17:31:47.745Z,98731.45
2019-01-21T17:33:58.557Z,98734.86
2019-01-21T17:36:09.393Z,98735.70
2019-01-21T17:38:20.239Z,98744.63
2019-01-21T17:40:31.155Z,98734.00
2019-01-21T17:42:42.009Z,98729.36
2019-01-21T17:44:52.923Z,98734.00
2019-01-21T17:47:03.895Z,98735.27
2019-01-21T17:49:14.772Z,98740.38
2019-01-21T17:51:25.721Z,98738.70
2019-01-21T17:53:36.546Z,98741.67
2019-01-21T17:55:47.371Z,98738.29
2019-01-21T17:57:58.285Z,98737.47
2019-01-21T18:00:50.913Z,98739.57
2019-01-21T18:03:01.864Z,98738.75
2019-01-21T18:05:12.712Z,98734.91
2019-01-21T18:07:23.639Z,98736.20
2019-01-21T18:09:34.454Z,98736.63
2019-01-21T18:11:45.263Z,98740.88
2019-01-21T18:13:56.129Z,98740.02
2019-01-21T18:16:06.936Z,98740.84
2019-01-21T18:18:17.885Z,98737.03
2019-01-21T18:20:28.695Z,98740.44
2019-01-21T18:22:39.726Z,98744.67
2019-01-21T18:24:50.542Z,98745.06
2019-01-21T18:27:01.428Z,98751.02
2019-01-21T18:29:12.345Z,98737.03
2019-01-21T18:31:23.181Z,98733.64
2019-01-21T18:33:34.193Z,98734.05
2019-01-21T18:35:45.044Z,98737.03
2019-01-21T18:38:37.563Z,98736.59
2019-01-21T18:40:48.385Z,98727.72
2019-01-21T18:42:59.343Z,98736.60
2019-01-21T18:45:51.778Z,98738.72
2019-01-21T18:48:02.937Z,98740.01
2019-01-21T18:50:13.875Z,98745.08
2019-01-21T18:52:24.699Z,98746.35
2019-01-21T18:54:57.299Z,98744.22
2019-01-21T18:57:08.212Z,98751.03
2019-01-21T18:59:19.222Z,98743.40
2019-01-21T19:01:30.074Z,98743.40
2019-01-21T19:03:41.022Z,98740.41
2019-01-21T19:05:51.902Z,98734.05
2019-01-21T19:08:02.920Z,98727.27
2019-01-21T19:10:56.436Z,98722.14
2019-01-21T19:13:07.238Z,98721.70
2019-01-21T19:15:59.813Z,98723.00
2019-01-21T19:18:10.763Z,98728.48
2019-01-21T19:20:21.679Z,98729.36
2019-01-21T19:22:32.501Z,98735.28
2019-01-21T19:24:43.362Z,98739.55
2019-01-21T19:26:54.271Z,98742.09
2019-01-21T19:29:05.089Z,98736.55
2019-01-21T19:31:16.020Z,98747.55
2019-01-21T19:33:26.838Z,98732.27
2019-01-21T19:35:37.694Z,98740.72
2019-01-21T19:37:48.623Z,98732.64
2019-01-21T19:39:59.442Z,98731.80
2019-01-21T19:42:10.330Z,98725.44
2019-01-21T19:44:21.165Z,98727.98
2019-01-21T19:46:32.035Z,98716.56
2019-01-21T19:48:42.868Z,98718.23
2019-01-21T19:53:10.968Z,98712.70
2019-01-21T19:55:43.646Z,98716.13
2019-01-21T19:57:54.452Z,98709.77
2019-01-21T20:00:25.140Z,98708.08
2019-01-21T20:02:36.144Z,98705.96
2019-01-21T20:04:47.039Z,98706.80
2019-01-21T20:06:57.889Z,98703.39
2019-01-21T20:09:08.811Z,98706.34
2019-01-21T20:11:19.764Z,98708.49
2019-01-21T20:13:30.618Z,98702.99
2019-01-21T20:15:41.435Z,98703.44
2019-01-21T20:17:52.554Z,98709.35
2019-01-21T20:20:25.176Z,98706.84
2019-01-21T20:22:36.093Z,98705.57
2019-01-21T20:24:46.929Z,98703.06
2019-01-21T20:26:57.885Z,98695.86
2019-01-21T20:29:08.726Z,98699.23
2019-01-21T20:31:19.566Z,98716.20
2019-01-21T20:38:04.856Z,98714.94
2019-01-21T20:40:35.552Z,98716.64
2019-01-21T20:42:46.515Z,98720.03
2019-01-21T20:44:57.374Z,98720.47
2019-01-21T20:47:08.318Z,98711.55
2019-01-21T20:49:19.146Z,98715.78
2019-01-21T20:51:29.966Z,98715.78
2019-01-21T20:55:58.175Z,98715.77
2019-01-21T20:58:09.590Z,98714.48
2019-01-21T21:01:02.066Z,98716.55
2019-01-21T21:03:13.082Z,98716.14
2019-01-21T21:05:24.115Z,98712.73
2019-01-21T21:07:34.913Z,98716.12
2019-01-21T21:14:19.436Z,98715.27
2019-01-21T21:16:30.249Z,98712.73
2019-01-21T21:18:41.194Z,98711.90
2019-01-21T21:20:51.980Z,98708.53
2019-01-21T21:23:02.925Z,98704.72
2019-01-21T21:25:55.485Z,98698.77
2019-01-21T21:28:06.456Z,98703.02
2019-01-21T21:30:39.131Z,98692.84
2019-01-21T21:32:50.377Z,98701.74
2019-01-21T21:35:01.356Z,98700.90
2019-01-21T21:37:12.232Z,98696.22
2019-01-21T21:39:23.058Z,98691.55
2019-01-21T21:41:34.200Z,98696.25
2019-01-21T21:43:45.011Z,98695.41
2019-01-21T21:45:56.027Z,98692.88
2019-01-21T21:48:06.914Z,98693.73
2019-01-21T21:50:37.694Z,98692.48
2019-01-21T21:52:48.573Z,98698.83
2019-01-21T21:54:59.401Z,98699.25
2019-01-21T21:57:10.218Z,98698.80
2019-01-21T21:59:21.036Z,98694.99
2019-01-21T22:01:32.016Z,98689.01
2019-01-21T22:03:56.415Z,98689.85
2019-01-21T22:06:07.287Z,98687.35
2019-01-21T22:08:18.068Z,98675.92
2019-01-21T22:10:29.009Z,98678.50
2019-01-21T22:16:00.176Z,98675.95
2019-01-21T22:18:11.283Z,98679.37
2019-01-21T22:21:03.816Z,98678.53
2019-01-21T22:23:14.632Z,98679.38
2019-01-21T22:25:25.446Z,98670.05
2019-01-21T22:27:36.380Z,98666.25
2019-01-21T22:29:47.217Z,98673.44
2019-01-21T22:31:58.085Z,98665.39
2019-01-21T22:34:08.911Z,98670.91
2019-01-21T22:36:21.667Z,98666.25
2019-01-21T22:38:32.490Z,98671.34
2019-01-21T22:40:43.331Z,98667.52
2019-01-21T22:42:54.157Z,98668.82
2019-01-21T22:45:46.612Z,98677.27
2019-01-21T22:47:57.458Z,98673.45
2019-01-21T22:50:49.913Z,98670.06
2019-01-21T22:53:00.748Z,98665.82
2019-01-21T22:55:53.202Z,98661.16
2019-01-21T22:58:04.147Z,98654.77
2019-01-21T23:00:56.640Z,98653.48
2019-01-21T23:03:21.341Z,98640.75
2019-01-21T23:05:32.154Z,98640.75
2019-01-21T23:07:43.000Z,98639.90
2019-01-21T23:09:53.797Z,98642.87
2019-01-21T23:12:04.813Z,98644.13
2019-01-21T23:14:15.653Z,98638.19
2019-01-21T23:16:26.468Z,98631.36
2019-01-21T23:18:37.279Z,98627.12
2019-01-21T23:20:48.102Z,98628.34
2019-01-21T23:22:58.919Z,98623.25
2019-01-21T23:25:09.844Z,98625.77
2019-01-21T23:27:22.544Z,98619.41
2019-01-21T23:29:33.355Z,98620.28
2019-01-21T23:31:44.157Z,98623.70
2019-01-21T23:33:54.983Z,98617.36
2019-01-21T23:36:05.882Z,98613.52
2019-01-21T23:38:16.814Z,98606.75
2019-01-21T23:40:27.614Z,98601.68
2019-01-21T23:42:38.509Z,98606.73
2019-01-21T23:44:49.321Z,98612.22
2019-01-21T23:47:00.235Z,98602.06
2019-01-21T23:49:11.155Z,98604.17
2019-01-21T23:51:21.965Z,98599.88
2019-01-21T23:53:34.677Z,98598.15
2019-01-21T23:55:47.522Z,98596.44
2019-01-21T23:57:58.314Z,98597.73
